createdAt,value
2018-05-31T00:01:00.736Z,18.68
2018-05-31T00:02:06.972Z,18.90
2018-05-31T00:03:13.477Z,19.08
2018-05-31T00:04:20.073Z,19.13
2018-05-31T00:05:26.204Z,19.24
2018-05-31T00:06:32.397Z,19.33
2018-05-31T00:07:38.733Z,19.36
2018-05-31T00:08:48.829Z,19.31
2018-05-31T00:09:55.517Z,19.08
2018-05-31T00:11:01.864Z,19.10
2018-05-31T00:12:07.913Z,19.08
2018-05-31T00:13:13.933Z,18.91
2018-05-31T00:14:20.084Z,18.77
2018-05-31T00:15:26.187Z,18.48
2018-05-31T00:16:32.574Z,18.30
2018-05-31T00:17:38.670Z,18.42
2018-05-31T00:18:45.436Z,18.53
2018-05-31T00:19:51.499Z,18.65
2018-05-31T00:20:57.855Z,18.42
2018-05-31T00:22:04.241Z,18.51
2018-05-31T00:23:10.436Z,18.46
2018-05-31T00:24:16.756Z,18.60
2018-05-31T00:25:24.232Z,18.73
2018-05-31T00:26:30.480Z,18.95
2018-05-31T00:27:36.841Z,19.04
2018-05-31T00:28:49.931Z,19.09
2018-05-31T00:29:56.537Z,18.87
2018-05-31T00:31:03.903Z,18.68
2018-05-31T00:32:10.243Z,18.72
2018-05-31T00:33:16.598Z,18.79
2018-05-31T00:34:23.827Z,18.53
2018-05-31T00:35:33.014Z,18.28
2018-05-31T00:36:40.457Z,18.11
2018-05-31T00:37:46.691Z,18.00
2018-05-31T00:38:53.274Z,17.96
2018-05-31T00:39:59.630Z,17.80
2018-05-31T00:41:06.004Z,17.66
2018-05-31T00:42:12.282Z,17.78
2018-05-31T00:43:19.290Z,17.72
2018-05-31T00:44:25.568Z,17.63
2018-05-31T00:45:32.644Z,17.66
2018-05-31T00:46:39.084Z,17.67
2018-05-31T00:47:45.791Z,17.70
2018-05-31T00:48:52.131Z,17.70
2018-05-31T00:50:02.371Z,17.84
2018-05-31T00:51:13.568Z,17.94
2018-05-31T00:52:20.482Z,18.07
2018-05-31T00:53:32.706Z,18.20
2018-05-31T00:54:39.592Z,18.21
2018-05-31T00:55:57.229Z,18.16
2018-05-31T00:57:03.317Z,18.01
2018-05-31T00:58:14.863Z,17.83
2018-05-31T00:59:22.094Z,17.70
2018-05-31T01:00:28.576Z,17.67
2018-05-31T01:01:34.106Z,17.71
2018-05-31T01:02:40.373Z,17.88
2018-05-31T01:03:47.273Z,18.09
2018-05-31T01:04:53.484Z,18.22
2018-05-31T01:06:00.444Z,18.23
2018-05-31T01:07:09.035Z,18.27
2018-05-31T01:08:15.968Z,18.22
2018-05-31T01:09:22.216Z,18.16
2018-05-31T01:10:29.001Z,18.24
2018-05-31T01:11:35.624Z,18.34
2018-05-31T01:12:41.896Z,18.33
2018-05-31T01:13:48.230Z,18.15
2018-05-31T01:14:54.246Z,18.23
2018-05-31T01:16:00.422Z,18.19
2018-05-31T01:17:11.403Z,18.22
2018-05-31T01:18:17.789Z,18.26
2018-05-31T01:19:24.087Z,18.30
2018-05-31T01:20:30.858Z,18.25
2018-05-31T01:21:37.507Z,17.92
2018-05-31T01:22:44.907Z,17.71
2018-05-31T01:23:51.186Z,17.54
2018-05-31T01:24:57.646Z,17.45
2018-05-31T01:26:04.025Z,17.42
2018-05-31T01:27:10.344Z,17.32
2018-05-31T01:28:17.154Z,17.40
2018-05-31T01:29:24.223Z,17.49
2018-05-31T01:30:30.246Z,17.58
2018-05-31T01:31:37.060Z,17.72
2018-05-31T01:32:44.526Z,17.85
2018-05-31T01:33:50.881Z,18.04
2018-05-31T01:34:57.797Z,18.13
2018-05-31T01:36:04.405Z,18.08
2018-05-31T01:37:11.226Z,18.08
2018-05-31T01:38:29.391Z,17.91
2018-05-31T01:39:35.418Z,17.78
2018-05-31T01:40:42.197Z,17.59
2018-05-31T01:41:48.556Z,17.46
2018-05-31T01:42:55.594Z,17.28
2018-05-31T01:44:01.652Z,17.24
2018-05-31T01:45:08.924Z,17.40
2018-05-31T01:46:15.237Z,17.57
2018-05-31T01:47:22.082Z,17.66
2018-05-31T01:48:29.908Z,17.71
2018-05-31T01:49:37.347Z,17.80
2018-05-31T01:50:44.148Z,17.73
2018-05-31T01:51:50.377Z,17.80
2018-05-31T01:52:57.304Z,17.71
2018-05-31T01:54:03.810Z,17.61
2018-05-31T01:55:10.231Z,17.56
2018-05-31T01:56:16.748Z,17.48
2018-05-31T01:57:23.660Z,17.62
2018-05-31T01:58:30.736Z,17.53
2018-05-31T01:59:37.025Z,17.55
2018-05-31T02:00:44.149Z,17.68
2018-05-31T02:01:51.113Z,17.72
2018-05-31T02:02:57.496Z,17.67
2018-05-31T02:04:04.727Z,17.71
2018-05-31T02:05:11.580Z,17.54
2018-05-31T02:06:17.945Z,17.46
2018-05-31T02:07:24.893Z,17.62
2018-05-31T02:08:31.160Z,17.74
2018-05-31T02:09:37.473Z,17.77
2018-05-31T02:10:43.459Z,17.74
2018-05-31T02:11:49.428Z,17.80
2018-05-31T02:12:55.500Z,17.88
2018-05-31T02:14:01.493Z,17.73
2018-05-31T02:15:08.517Z,17.52
2018-05-31T02:16:14.935Z,17.36
2018-05-31T02:17:22.197Z,17.29
2018-05-31T02:18:28.500Z,17.26
2018-05-31T02:19:34.688Z,17.43
2018-05-31T02:20:41.614Z,17.46
2018-05-31T02:21:47.926Z,17.41
2018-05-31T02:22:54.277Z,17.33
2018-05-31T02:24:00.565Z,17.17
2018-05-31T02:25:06.641Z,17.09
2018-05-31T02:26:13.072Z,17.08
2018-05-31T02:27:19.629Z,17.14
2018-05-31T02:28:25.853Z,17.26
2018-05-31T02:29:32.145Z,17.45
2018-05-31T02:30:38.425Z,17.50
2018-05-31T02:31:44.742Z,17.51
2018-05-31T02:32:51.090Z,17.49
2018-05-31T02:33:57.324Z,17.49
2018-05-31T02:35:03.367Z,17.53
2018-05-31T02:36:10.601Z,17.55
2018-05-31T02:37:16.906Z,17.63
2018-05-31T02:38:23.382Z,17.69
2018-05-31T02:39:29.739Z,17.73
2018-05-31T02:40:35.720Z,17.78
2018-05-31T02:41:42.042Z,17.78
2018-05-31T02:42:48.118Z,17.77
2018-05-31T02:43:54.388Z,17.49
2018-05-31T02:45:00.825Z,17.35
2018-05-31T02:46:07.408Z,17.19
2018-05-31T02:47:15.445Z,16.97
2018-05-31T02:48:21.990Z,16.82
2018-05-31T02:49:28.532Z,16.74
2018-05-31T02:50:35.033Z,16.72
2018-05-31T02:51:41.523Z,16.79
2018-05-31T02:52:48.175Z,16.97
2018-05-31T02:53:54.691Z,17.18
2018-05-31T02:55:01.270Z,17.29
2018-05-31T02:56:07.580Z,17.35
2018-05-31T02:57:13.876Z,17.37
2018-05-31T02:58:20.247Z,17.46
2018-05-31T02:59:26.558Z,17.56
2018-05-31T03:00:32.842Z,17.50
2018-05-31T03:01:38.849Z,17.50
2018-05-31T03:02:45.146Z,17.69
2018-05-31T03:03:51.504Z,17.70
2018-05-31T03:04:57.808Z,17.55
2018-05-31T03:06:04.085Z,17.31
2018-05-31T03:07:10.124Z,17.10
2018-05-31T03:08:18.151Z,16.96
2018-05-31T03:09:27.207Z,16.86
2018-05-31T03:10:33.965Z,16.71
2018-05-31T03:11:41.153Z,16.69
2018-05-31T03:12:47.384Z,16.71
2018-05-31T03:13:53.649Z,16.78
2018-05-31T03:14:59.937Z,16.85
2018-05-31T03:16:06.053Z,16.98
2018-05-31T03:17:12.475Z,17.00
2018-05-31T03:18:18.772Z,16.99
2018-05-31T03:19:25.086Z,17.07
2018-05-31T03:20:31.413Z,17.06
2018-05-31T03:21:37.652Z,17.01
2018-05-31T03:22:44.008Z,16.96
2018-05-31T03:23:50.344Z,16.93
2018-05-31T03:24:56.343Z,16.94
2018-05-31T03:26:02.730Z,16.95
2018-05-31T03:27:09.688Z,17.03
2018-05-31T03:28:16.838Z,17.09
2018-05-31T03:29:23.107Z,17.21
2018-05-31T03:30:29.392Z,17.34
2018-05-31T03:31:35.731Z,17.36
2018-05-31T03:32:42.140Z,17.37
2018-05-31T03:33:48.573Z,17.45
2018-05-31T03:34:54.873Z,17.49
2018-05-31T03:36:01.261Z,17.55
2018-05-31T03:37:07.257Z,17.47
2018-05-31T03:38:13.825Z,17.47
2018-05-31T03:39:20.547Z,17.38
2018-05-31T03:40:26.963Z,17.33
2018-05-31T03:41:33.542Z,17.27
2018-05-31T03:42:39.847Z,17.27
2018-05-31T03:43:46.501Z,17.40
2018-05-31T03:44:53.947Z,17.55
2018-05-31T03:46:00.425Z,17.58
2018-05-31T03:47:09.101Z,17.59
2018-05-31T03:48:15.646Z,17.64
2018-05-31T03:49:22.466Z,17.89
2018-05-31T03:50:28.464Z,18.05
2018-05-31T03:51:34.756Z,17.96
2018-05-31T03:52:41.061Z,17.75
2018-05-31T03:53:47.479Z,17.57
2018-05-31T03:54:53.617Z,17.43
2018-05-31T03:56:00.545Z,17.46
2018-05-31T03:57:08.352Z,17.49
2018-05-31T03:58:15.019Z,17.51
2018-05-31T03:59:21.713Z,17.55
2018-05-31T04:00:28.879Z,17.71
2018-05-31T04:01:35.163Z,17.82
2018-05-31T04:02:41.660Z,17.89
2018-05-31T04:03:47.966Z,17.98
2018-05-31T04:04:54.317Z,18.07
2018-05-31T04:06:00.590Z,18.11
2018-05-31T04:07:06.920Z,18.13
2018-05-31T04:08:12.943Z,18.06
2018-05-31T04:09:19.241Z,17.97
2018-05-31T04:10:25.925Z,17.83
2018-05-31T04:11:32.573Z,17.83
2018-05-31T04:12:39.602Z,17.77
2018-05-31T04:13:46.220Z,17.90
2018-05-31T04:14:53.184Z,18.01
2018-05-31T04:15:59.465Z,18.10
2018-05-31T04:17:05.769Z,18.21
2018-05-31T04:18:12.068Z,18.43
2018-05-31T04:19:22.410Z,18.61
2018-05-31T04:20:32.419Z,18.76
2018-05-31T04:21:41.105Z,18.88
2018-05-31T04:22:47.753Z,18.91
2018-05-31T04:23:54.064Z,18.63
2018-05-31T04:25:00.412Z,18.59
2018-05-31T04:26:06.700Z,18.48
2018-05-31T04:27:13.013Z,18.68
2018-05-31T04:28:19.316Z,18.79
2018-05-31T04:29:25.644Z,18.87
2018-05-31T04:30:33.267Z,18.72
2018-05-31T04:31:40.192Z,18.65
2018-05-31T04:32:46.504Z,18.74
2018-05-31T04:33:52.836Z,18.72
2018-05-31T04:34:59.409Z,18.83
2018-05-31T04:36:05.681Z,18.87
2018-05-31T04:37:11.958Z,18.98
2018-05-31T04:38:18.279Z,18.94
2018-05-31T04:39:24.302Z,18.60
2018-05-31T04:40:32.638Z,18.35
2018-05-31T04:41:38.919Z,18.29
2018-05-31T04:42:46.177Z,18.46
2018-05-31T04:43:52.185Z,18.58
2018-05-31T04:44:58.511Z,18.67
2018-05-31T04:46:04.788Z,18.57
2018-05-31T04:47:11.119Z,18.57
2018-05-31T04:48:17.460Z,18.50
2018-05-31T04:49:23.785Z,18.29
2018-05-31T04:50:30.317Z,18.28
2018-05-31T04:51:36.591Z,18.38
2018-05-31T04:52:42.812Z,18.41
2018-05-31T04:53:49.106Z,18.27
2018-05-31T04:54:55.398Z,18.24
2018-05-31T04:56:01.712Z,18.26
2018-05-31T04:57:08.154Z,18.39
2018-05-31T04:58:14.465Z,18.52
2018-05-31T04:59:20.760Z,18.71
2018-05-31T05:00:27.100Z,18.83
2018-05-31T05:01:33.422Z,18.68
2018-05-31T05:02:39.798Z,18.65
2018-05-31T05:03:48.108Z,18.28
2018-05-31T05:04:54.377Z,18.26
2018-05-31T05:06:00.697Z,18.29
2018-05-31T05:07:07.094Z,18.19
2018-05-31T05:08:14.473Z,18.16
2018-05-31T05:09:20.769Z,18.34
2018-05-31T05:10:27.106Z,18.56
2018-05-31T05:11:33.365Z,18.76
2018-05-31T05:12:39.668Z,18.78
2018-05-31T05:13:46.003Z,18.84
2018-05-31T05:14:53.259Z,18.78
2018-05-31T05:15:59.705Z,18.79
2018-05-31T05:17:05.507Z,18.88
2018-05-31T05:18:11.855Z,18.58
2018-05-31T05:19:18.189Z,18.51
2018-05-31T05:20:24.592Z,18.44
2018-05-31T05:21:31.190Z,18.45
2018-05-31T05:22:38.091Z,18.45
2018-05-31T05:23:44.417Z,18.61
2018-05-31T05:24:51.790Z,18.71
2018-05-31T05:25:58.108Z,18.54
2018-05-31T05:27:04.357Z,18.59
2018-05-31T05:28:10.697Z,18.67
2018-05-31T05:29:17.010Z,18.83
2018-05-31T05:30:23.651Z,18.84
2018-05-31T05:31:30.144Z,18.78
2018-05-31T05:32:36.683Z,18.83
2018-05-31T05:33:43.184Z,18.94
2018-05-31T05:34:49.368Z,19.10
2018-05-31T05:35:56.031Z,19.35
2018-05-31T05:37:03.440Z,19.53
2018-05-31T05:38:10.480Z,19.62
2018-05-31T05:39:16.124Z,19.43
2018-05-31T05:40:22.211Z,19.12
2018-05-31T05:41:28.488Z,19.08
2018-05-31T05:42:34.813Z,19.25
2018-05-31T05:43:41.027Z,19.49
2018-05-31T05:44:52.979Z,19.64
2018-05-31T05:46:04.780Z,19.58
2018-05-31T05:47:11.304Z,19.46
2018-05-31T05:48:17.620Z,19.58
2018-05-31T05:49:24.851Z,19.64
2018-05-31T05:50:31.197Z,19.67
2018-05-31T05:51:37.490Z,19.44
2018-05-31T05:52:44.034Z,19.49
2018-05-31T05:53:50.248Z,19.59
2018-05-31T05:54:56.526Z,19.80
2018-05-31T05:56:02.870Z,19.96
2018-05-31T05:57:09.140Z,20.06
2018-05-31T05:58:15.480Z,20.20
2018-05-31T05:59:21.452Z,20.19
2018-05-31T06:00:27.792Z,19.82
2018-05-31T06:01:34.116Z,19.93
2018-05-31T06:02:40.207Z,19.84
2018-05-31T06:03:46.596Z,19.63
2018-05-31T06:04:52.910Z,19.55
2018-05-31T06:05:59.246Z,19.30
2018-05-31T06:07:05.558Z,19.34
2018-05-31T06:08:12.428Z,19.51
2018-05-31T06:09:19.604Z,19.63
2018-05-31T06:10:25.901Z,19.51
2018-05-31T06:11:32.485Z,19.56
2018-05-31T06:12:38.742Z,19.57
2018-05-31T06:13:44.684Z,19.59
2018-05-31T06:14:51.068Z,19.65
2018-05-31T06:15:56.898Z,19.74
2018-05-31T06:17:02.986Z,19.82
2018-05-31T06:18:09.466Z,19.61
2018-05-31T06:19:15.813Z,19.61
2018-05-31T06:20:22.141Z,19.75
2018-05-31T06:21:28.437Z,20.05
2018-05-31T06:22:34.721Z,20.31
2018-05-31T06:23:41.018Z,20.48
2018-05-31T06:24:47.352Z,20.61
2018-05-31T06:25:53.705Z,20.72
2018-05-31T06:26:59.984Z,20.78
2018-05-31T06:28:06.286Z,20.45
2018-05-31T06:29:12.582Z,20.31
2018-05-31T06:30:18.919Z,20.29
2018-05-31T06:31:25.273Z,20.35
2018-05-31T06:32:31.538Z,20.32
2018-05-31T06:33:37.870Z,20.34
2018-05-31T06:34:44.360Z,20.28
2018-05-31T06:35:50.744Z,20.52
2018-05-31T06:36:57.677Z,20.45
2018-05-31T06:38:03.349Z,20.55
2018-05-31T06:39:09.301Z,20.59
2018-05-31T06:40:15.327Z,20.68
2018-05-31T06:41:21.448Z,20.68
2018-05-31T06:42:27.697Z,20.91
2018-05-31T06:43:34.038Z,21.13
2018-05-31T06:44:41.629Z,20.95
2018-05-31T06:45:47.601Z,20.97
2018-05-31T06:46:54.025Z,21.20
2018-05-31T06:48:00.464Z,21.34
2018-05-31T06:49:06.861Z,21.07
2018-05-31T06:50:13.169Z,20.99
2018-05-31T06:51:19.576Z,21.04
2018-05-31T06:52:25.822Z,20.91
2018-05-31T06:53:32.205Z,20.81
2018-05-31T06:54:39.318Z,20.89
2018-05-31T06:55:45.625Z,21.02
2018-05-31T06:56:52.775Z,21.04
2018-05-31T06:57:59.168Z,21.12
2018-05-31T06:59:05.428Z,21.23
2018-05-31T07:00:12.450Z,21.30
2018-05-31T07:01:19.447Z,21.37
2018-05-31T07:02:25.736Z,21.44
2018-05-31T07:03:32.051Z,21.55
2018-05-31T07:04:38.410Z,21.74
2018-05-31T07:05:44.679Z,21.87
2018-05-31T07:06:51.045Z,21.94
2018-05-31T07:07:57.316Z,21.91
2018-05-31T07:09:06.040Z,21.82
2018-05-31T07:10:12.312Z,22.05
2018-05-31T07:11:18.710Z,22.05
2018-05-31T07:12:25.049Z,22.18
2018-05-31T07:13:31.470Z,22.42
2018-05-31T07:14:37.773Z,22.46
2018-05-31T07:15:45.167Z,22.38
2018-05-31T07:16:52.066Z,22.38
2018-05-31T07:17:57.951Z,22.25
2018-05-31T07:19:04.233Z,22.11
2018-05-31T07:20:10.553Z,22.14
2018-05-31T07:21:16.867Z,22.04
2018-05-31T07:22:23.773Z,22.15
2018-05-31T07:23:30.214Z,22.17
2018-05-31T07:24:36.502Z,22.21
2018-05-31T07:25:42.827Z,22.35
2018-05-31T07:26:49.105Z,22.18
2018-05-31T07:27:56.166Z,22.25
2018-05-31T07:29:02.453Z,22.55
2018-05-31T07:30:15.848Z,22.66
2018-05-31T07:31:22.964Z,22.59
2018-05-31T07:32:29.783Z,22.71
2018-05-31T07:33:35.843Z,22.84
2018-05-31T07:34:42.202Z,22.83
2018-05-31T07:35:48.504Z,23.05
2018-05-31T07:36:54.869Z,23.18
2018-05-31T07:38:01.173Z,23.13
2018-05-31T07:39:07.452Z,23.25
2018-05-31T07:40:13.763Z,23.37
2018-05-31T07:41:20.072Z,23.35
2018-05-31T07:42:26.453Z,23.45
2018-05-31T07:43:32.693Z,23.54
2018-05-31T07:44:39.007Z,23.62
2018-05-31T07:45:45.148Z,23.68
2018-05-31T07:46:51.428Z,23.74
2018-05-31T07:47:58.496Z,23.84
2018-05-31T07:49:04.710Z,23.96
2018-05-31T07:50:11.022Z,24.03
2018-05-31T07:51:17.331Z,24.11
2018-05-31T07:52:23.946Z,24.10
2018-05-31T07:53:30.245Z,23.97
2018-05-31T07:54:36.558Z,24.01
2018-05-31T07:55:42.848Z,24.17
2018-05-31T07:56:49.270Z,24.30
2018-05-31T07:57:55.608Z,24.32
2018-05-31T07:59:01.895Z,24.39
2018-05-31T08:00:13.274Z,24.11
2018-05-31T08:01:20.543Z,24.25
2018-05-31T08:02:26.889Z,24.31
2018-05-31T08:03:33.988Z,24.34
2018-05-31T08:04:40.312Z,24.45
2018-05-31T08:05:46.672Z,24.61
2018-05-31T08:06:53.274Z,24.82
2018-05-31T08:07:59.569Z,24.88
2018-05-31T08:09:06.052Z,24.95
2018-05-31T08:10:12.062Z,25.04
2018-05-31T08:11:18.419Z,25.07
2018-05-31T08:12:32.867Z,25.12
2018-05-31T08:13:38.821Z,25.10
2018-05-31T08:14:44.888Z,25.18
2018-05-31T08:15:56.521Z,25.26
2018-05-31T08:17:02.644Z,25.30
2018-05-31T08:18:09.970Z,25.31
2018-05-31T08:19:16.505Z,25.07
2018-05-31T08:20:22.838Z,25.02
2018-05-31T08:21:29.137Z,25.09
2018-05-31T08:22:35.260Z,24.99
2018-05-31T08:23:41.683Z,25.15
2018-05-31T08:24:47.640Z,25.38
2018-05-31T08:25:54.048Z,25.38
2018-05-31T08:27:00.362Z,25.51
2018-05-31T08:28:06.412Z,25.59
2018-05-31T08:29:13.026Z,25.65
2018-05-31T08:30:19.123Z,25.67
2018-05-31T08:31:25.564Z,25.69
2018-05-31T08:32:32.166Z,25.72
2018-05-31T08:33:38.850Z,25.77
2018-05-31T08:34:45.689Z,25.76
2018-05-31T08:35:51.811Z,25.85
2018-05-31T08:36:58.992Z,25.89
2018-05-31T08:38:05.248Z,25.38
2018-05-31T08:39:10.941Z,25.42
2018-05-31T08:40:22.353Z,25.61
2018-05-31T08:41:28.119Z,25.75
2018-05-31T08:42:33.925Z,25.94
2018-05-31T08:43:40.055Z,25.92
2018-05-31T08:44:46.093Z,25.94
2018-05-31T08:45:52.159Z,25.97
2018-05-31T08:46:58.255Z,26.13
2018-05-31T08:48:04.413Z,26.23
2018-05-31T08:49:10.407Z,26.30
2018-05-31T08:50:16.554Z,26.36
2018-05-31T08:51:22.664Z,26.41
2018-05-31T08:52:28.970Z,26.47
2018-05-31T08:53:35.089Z,26.47
2018-05-31T08:54:42.783Z,26.49
2018-05-31T08:55:48.901Z,26.54
2018-05-31T08:56:55.021Z,26.68
2018-05-31T08:58:01.141Z,26.76
2018-05-31T08:59:07.729Z,26.81
2018-05-31T09:00:13.766Z,26.85
2018-05-31T09:01:19.844Z,26.95
2018-05-31T09:02:25.968Z,27.01
2018-05-31T09:03:34.242Z,27.01
2018-05-31T09:04:40.437Z,27.07
2018-05-31T09:05:46.426Z,27.11
2018-05-31T09:06:52.546Z,27.04
2018-05-31T09:07:58.689Z,27.06
2018-05-31T09:09:03.818Z,26.99
2018-05-31T09:10:10.535Z,27.08
2018-05-31T09:11:17.140Z,27.05
2018-05-31T09:12:23.170Z,26.81
2018-05-31T09:13:29.196Z,27.00
2018-05-31T09:14:35.277Z,26.96
2018-05-31T09:15:41.411Z,26.89
2018-05-31T09:16:48.485Z,26.84
2018-05-31T09:17:54.625Z,27.02
2018-05-31T09:19:00.757Z,27.18
2018-05-31T09:20:06.865Z,27.20
2018-05-31T09:21:13.957Z,27.15
2018-05-31T09:22:22.309Z,27.19
2018-05-31T09:23:29.097Z,27.26
2018-05-31T09:24:35.159Z,27.33
2018-05-31T09:25:41.946Z,27.42
2018-05-31T09:26:48.657Z,27.51
2018-05-31T09:27:54.803Z,27.28
2018-05-31T09:29:00.849Z,27.22
2018-05-31T09:30:06.573Z,27.40
2018-05-31T09:31:12.672Z,27.46
2018-05-31T09:32:18.816Z,27.49
2018-05-31T09:33:25.024Z,27.57
2018-05-31T09:34:31.156Z,27.60
2018-05-31T09:35:37.612Z,27.58
2018-05-31T09:36:44.860Z,27.57
2018-05-31T09:37:50.871Z,27.72
2018-05-31T09:38:57.044Z,27.78
2018-05-31T09:40:03.112Z,27.80
2018-05-31T09:41:09.246Z,27.90
2018-05-31T09:42:16.273Z,27.84
2018-05-31T09:43:22.003Z,27.93
2018-05-31T09:44:28.188Z,27.81
2018-05-31T09:45:34.260Z,27.38
2018-05-31T09:46:40.441Z,27.36
2018-05-31T09:47:47.564Z,27.64
2018-05-31T09:48:53.743Z,27.83
2018-05-31T09:49:59.828Z,27.82
2018-05-31T09:51:05.264Z,27.45
2018-05-31T09:52:11.614Z,27.40
2018-05-31T09:53:17.651Z,27.39
2018-05-31T09:54:24.281Z,27.54
2018-05-31T09:55:30.260Z,27.76
2018-05-31T09:56:36.160Z,27.87
2018-05-31T09:57:50.167Z,28.04
2018-05-31T09:58:56.172Z,28.09
2018-05-31T10:00:02.257Z,28.15
2018-05-31T10:01:07.620Z,28.13
2018-05-31T10:02:13.572Z,28.30
2018-05-31T10:03:19.675Z,28.32
2018-05-31T10:04:25.787Z,28.33
2018-05-31T10:05:31.518Z,28.32
2018-05-31T10:06:37.626Z,28.36
2018-05-31T10:07:43.780Z,28.50
2018-05-31T10:08:49.930Z,28.47
2018-05-31T10:09:56.030Z,28.48
2018-05-31T10:11:02.107Z,28.37
2018-05-31T10:12:08.213Z,28.28
2018-05-31T10:13:15.263Z,28.32
2018-05-31T10:14:21.330Z,28.33
2018-05-31T10:15:27.357Z,28.47
2018-05-31T10:16:33.496Z,28.33
2018-05-31T10:17:40.618Z,28.28
2018-05-31T10:18:46.811Z,28.45
2018-05-31T10:19:52.666Z,28.55
2018-05-31T10:20:58.817Z,28.60
2018-05-31T10:22:04.632Z,28.65
2018-05-31T10:23:10.914Z,28.59
2018-05-31T10:24:16.768Z,28.47
2018-05-31T10:25:22.833Z,28.47
2018-05-31T10:26:28.954Z,28.51
2018-05-31T10:27:35.061Z,28.58
2018-05-31T10:28:41.152Z,28.79
2018-05-31T10:29:47.305Z,28.75
2018-05-31T10:30:52.974Z,28.68
2018-05-31T10:31:59.265Z,28.62
2018-05-31T10:33:06.016Z,28.55
2018-05-31T10:34:12.843Z,28.56
2018-05-31T10:35:18.937Z,28.34
2018-05-31T10:36:25.034Z,28.12
2018-05-31T10:37:31.164Z,28.29
2018-05-31T10:38:37.248Z,28.43
2018-05-31T10:39:44.101Z,28.56
2018-05-31T10:40:49.844Z,28.75
2018-05-31T10:41:55.976Z,28.75
2018-05-31T10:43:02.089Z,28.78
2018-05-31T10:44:08.242Z,28.93
2018-05-31T10:45:14.305Z,29.04
2018-05-31T10:46:20.926Z,28.54
2018-05-31T10:47:27.029Z,28.41
2018-05-31T10:48:32.493Z,28.33
2018-05-31T10:49:39.170Z,28.20
2018-05-31T10:50:45.175Z,28.10
2018-05-31T10:51:51.761Z,28.24
2018-05-31T10:52:57.871Z,28.53
2018-05-31T10:54:04.492Z,28.56
2018-05-31T10:55:10.149Z,28.49
2018-05-31T10:56:16.304Z,28.47
2018-05-31T10:57:23.425Z,28.63
2018-05-31T10:58:29.432Z,28.85
2018-05-31T10:59:35.567Z,28.97
2018-05-31T11:00:41.656Z,29.06
2018-05-31T11:01:47.749Z,29.11
2018-05-31T11:02:54.194Z,29.11
2018-05-31T11:04:00.284Z,29.16
2018-05-31T11:05:06.429Z,29.25
2018-05-31T11:06:12.512Z,29.25
2018-05-31T11:07:18.596Z,29.26
2018-05-31T11:08:24.964Z,29.15
2018-05-31T11:09:31.421Z,28.96
2018-05-31T11:10:37.438Z,28.90
2018-05-31T11:11:43.541Z,28.83
2018-05-31T11:12:49.673Z,28.74
2018-05-31T11:13:55.753Z,28.78
2018-05-31T11:15:01.918Z,28.89
2018-05-31T11:16:08.213Z,28.93
2018-05-31T11:17:14.287Z,29.05
2018-05-31T11:18:20.930Z,29.09
2018-05-31T11:19:27.009Z,28.99
2018-05-31T11:20:33.156Z,28.99
2018-05-31T11:21:39.093Z,29.02
2018-05-31T11:22:46.301Z,29.03
2018-05-31T11:23:52.456Z,29.08
2018-05-31T11:24:58.287Z,29.05
2018-05-31T11:26:04.377Z,29.02
2018-05-31T11:27:10.481Z,28.96
2018-05-31T11:28:16.576Z,29.07
2018-05-31T11:29:22.389Z,29.24
2018-05-31T11:30:29.549Z,29.40
2018-05-31T11:31:35.413Z,29.56
2018-05-31T11:32:41.572Z,29.60
2018-05-31T11:33:47.708Z,29.61
2018-05-31T11:34:54.044Z,29.60
2018-05-31T11:36:01.903Z,29.43
2018-05-31T11:37:07.665Z,29.36
2018-05-31T11:38:13.893Z,29.46
2018-05-31T11:39:20.217Z,29.60
2018-05-31T11:40:26.353Z,29.58
2018-05-31T11:41:32.488Z,29.52
2018-05-31T11:42:38.843Z,29.50
2018-05-31T11:43:44.920Z,29.68
2018-05-31T11:44:51.024Z,29.83
2018-05-31T11:45:57.860Z,29.87
2018-05-31T11:47:04.670Z,29.89
2018-05-31T11:48:10.500Z,29.94
2018-05-31T11:49:16.619Z,30.04
2018-05-31T11:50:23.693Z,29.96
2018-05-31T11:51:29.856Z,29.92
2018-05-31T11:52:35.656Z,30.06
2018-05-31T11:53:41.764Z,30.12
2018-05-31T11:54:47.869Z,30.23
2018-05-31T11:55:53.811Z,30.33
2018-05-31T11:56:59.681Z,30.34
2018-05-31T11:58:05.429Z,30.30
2018-05-31T11:59:11.278Z,30.31
2018-05-31T12:00:17.416Z,30.26
2018-05-31T12:01:23.491Z,30.31
2018-05-31T12:02:29.513Z,30.39
2018-05-31T12:03:35.637Z,30.43
2018-05-31T12:04:41.722Z,30.21
2018-05-31T12:05:47.852Z,30.33
2018-05-31T12:06:53.939Z,29.87
2018-05-31T12:08:00.037Z,29.89
2018-05-31T12:09:06.639Z,29.89
2018-05-31T12:10:12.656Z,29.85
2018-05-31T12:11:20.619Z,30.01
2018-05-31T12:12:26.732Z,30.16
2018-05-31T12:13:32.754Z,30.15
2018-05-31T12:14:38.925Z,30.33
2018-05-31T12:15:44.717Z,30.40
2018-05-31T12:16:52.420Z,30.47
2018-05-31T12:17:59.620Z,30.58
2018-05-31T12:19:05.913Z,30.65
2018-05-31T12:20:12.941Z,30.59
2018-05-31T12:21:19.087Z,30.56
2018-05-31T12:22:25.955Z,30.51
2018-05-31T12:23:32.058Z,30.56
2018-05-31T12:24:38.102Z,30.68
2018-05-31T12:25:44.229Z,30.68
2018-05-31T12:26:50.418Z,30.55
2018-05-31T12:27:56.528Z,30.38
2018-05-31T12:29:02.593Z,30.49
2018-05-31T12:30:08.693Z,30.34
2018-05-31T12:31:14.974Z,30.30
2018-05-31T12:32:20.717Z,30.49
2018-05-31T12:33:26.838Z,30.36
2018-05-31T12:34:32.978Z,30.17
2018-05-31T12:35:39.403Z,30.00
2018-05-31T12:36:45.498Z,30.20
2018-05-31T12:37:51.886Z,30.43
2018-05-31T12:38:58.677Z,30.62
2018-05-31T12:40:04.949Z,30.62
2018-05-31T12:41:11.985Z,30.36
2018-05-31T12:42:18.075Z,30.38
2018-05-31T12:43:23.840Z,30.43
2018-05-31T12:44:29.669Z,30.10
2018-05-31T12:45:35.773Z,29.97
2018-05-31T12:46:41.907Z,30.20
2018-05-31T12:47:47.997Z,30.41
2018-05-31T12:48:54.089Z,30.55
2018-05-31T12:50:00.192Z,30.65
2018-05-31T12:51:06.106Z,30.72
2018-05-31T12:52:12.933Z,30.59
2018-05-31T12:53:19.980Z,30.54
2018-05-31T12:54:26.426Z,30.47
2018-05-31T12:55:32.593Z,30.59
2018-05-31T12:56:39.390Z,30.47
2018-05-31T12:57:45.501Z,30.55
2018-05-31T12:58:52.142Z,30.57
2018-05-31T12:59:58.235Z,30.54
2018-05-31T13:01:04.029Z,30.53
2018-05-31T13:02:10.654Z,30.55
2018-05-31T13:03:16.761Z,30.49
2018-05-31T13:04:22.481Z,30.36
2018-05-31T13:05:28.576Z,30.22
2018-05-31T13:06:35.529Z,30.30
2018-05-31T13:07:41.604Z,30.40
2018-05-31T13:08:47.729Z,30.54
2018-05-31T13:09:54.223Z,30.39
2018-05-31T13:11:00.316Z,30.52
2018-05-31T13:12:06.164Z,30.52
2018-05-31T13:13:11.999Z,30.63
2018-05-31T13:14:19.016Z,30.84
2018-05-31T13:15:25.698Z,30.91
2018-05-31T13:16:31.787Z,30.83
2018-05-31T13:17:37.896Z,30.90
2018-05-31T13:18:44.077Z,30.98
2018-05-31T13:19:50.421Z,30.96
2018-05-31T13:20:56.838Z,30.85
2018-05-31T13:22:02.965Z,30.89
2018-05-31T13:23:08.751Z,31.02
2018-05-31T13:24:14.859Z,31.12
2018-05-31T13:25:21.476Z,30.94
2018-05-31T13:26:27.805Z,30.96
2018-05-31T13:27:33.785Z,30.77
2018-05-31T13:28:40.817Z,30.46
2018-05-31T13:29:46.996Z,30.04
2018-05-31T13:30:53.554Z,29.98
2018-05-31T13:31:59.217Z,30.16
2018-05-31T13:33:05.352Z,30.20
2018-05-31T13:34:11.479Z,30.34
2018-05-31T13:35:17.559Z,30.46
2018-05-31T13:36:23.680Z,30.54
2018-05-31T13:37:30.341Z,30.59
2018-05-31T13:38:36.409Z,30.54
2018-05-31T13:39:42.536Z,30.57
2018-05-31T13:40:48.620Z,30.78
2018-05-31T13:41:54.765Z,30.90
2018-05-31T13:43:00.929Z,30.80
2018-05-31T13:44:07.033Z,30.83
2018-05-31T13:45:13.144Z,30.74
2018-05-31T13:46:19.245Z,30.86
2018-05-31T13:47:25.288Z,31.10
2018-05-31T13:48:31.365Z,31.24
2018-05-31T13:49:37.367Z,31.28
2018-05-31T13:50:43.741Z,31.22
2018-05-31T13:51:49.988Z,31.23
2018-05-31T13:52:56.015Z,31.22
2018-05-31T13:54:02.033Z,31.26
2018-05-31T13:55:08.005Z,31.21
2018-05-31T13:56:14.142Z,30.97
2018-05-31T13:57:20.244Z,30.65
2018-05-31T13:58:25.912Z,30.77
2018-05-31T13:59:32.156Z,30.91
2018-05-31T14:00:38.292Z,31.00
2018-05-31T14:01:44.479Z,31.00
2018-05-31T14:02:50.573Z,31.02
2018-05-31T14:03:56.772Z,31.03
2018-05-31T14:05:02.846Z,30.91
2018-05-31T14:06:09.041Z,30.88
2018-05-31T14:07:17.881Z,30.91
2018-05-31T14:08:23.946Z,30.99
2018-05-31T14:09:30.340Z,31.09
2018-05-31T14:10:37.489Z,31.09
2018-05-31T14:11:43.808Z,30.91
2018-05-31T14:12:49.596Z,30.88
2018-05-31T14:13:55.340Z,30.84
2018-05-31T14:15:01.602Z,30.96
2018-05-31T14:16:07.792Z,31.09
2018-05-31T14:17:13.977Z,31.27